createdAt,value
2017-09-26T00:00:58.572Z,12.00
2017-09-26T00:03:27.032Z,12.00
2017-09-26T00:05:54.744Z,12.00
2017-09-26T00:08:22.424Z,12.00
2017-09-26T00:10:50.140Z,12.00
2017-09-26T00:13:18.575Z,12.10
2017-09-26T00:15:46.292Z,12.00
2017-09-26T00:18:14.735Z,12.30
2017-09-26T00:20:42.461Z,12.20
2017-09-26T00:23:10.137Z,12.30
2017-09-26T00:25:37.824Z,12.20
2017-09-26T00:28:06.313Z,12.20
2017-09-26T00:30:34.773Z,12.20
2017-09-26T00:33:02.547Z,12.20
2017-09-26T00:35:31.048Z,12.20
2017-09-26T00:37:58.829Z,12.20
2017-09-26T00:40:26.561Z,12.20
2017-09-26T00:42:55.056Z,12.20
2017-09-26T00:45:22.804Z,12.30
2017-09-26T00:47:50.531Z,12.20
2017-09-26T00:50:18.280Z,12.20
2017-09-26T00:52:46.119Z,12.30
2017-09-26T00:55:13.803Z,12.30
2017-09-26T00:57:41.575Z,12.40
2017-09-26T01:00:09.307Z,12.40
2017-09-26T01:02:37.071Z,12.40
2017-09-26T01:05:19.633Z,12.30
2017-09-26T01:07:48.175Z,12.00
2017-09-26T01:10:15.867Z,12.00
2017-09-26T01:12:44.372Z,11.90
2017-09-26T01:15:12.062Z,11.90
2017-09-26T01:17:39.771Z,11.90
2017-09-26T01:20:08.330Z,11.90
2017-09-26T01:22:36.097Z,11.90
2017-09-26T01:25:03.850Z,12.00
2017-09-26T01:27:31.568Z,12.00
2017-09-26T01:29:59.283Z,11.90
2017-09-26T01:32:26.939Z,11.90
2017-09-26T01:34:54.639Z,11.90
2017-09-26T01:37:22.303Z,12.00
2017-09-26T01:39:50.011Z,12.10
2017-09-26T01:42:17.689Z,12.00
2017-09-26T01:44:46.171Z,11.80
2017-09-26T01:47:14.595Z,11.70
2017-09-26T01:49:42.340Z,11.70
2017-09-26T01:52:10.043Z,11.80
2017-09-26T01:54:37.800Z,11.70
2017-09-26T01:57:08.180Z,11.70
2017-09-26T01:59:35.931Z,11.60
2017-09-26T02:02:03.602Z,11.70
2017-09-26T02:04:31.315Z,11.60
2017-09-26T02:06:58.979Z,11.60
2017-09-26T02:09:26.704Z,11.50
2017-09-26T02:11:54.376Z,11.60
2017-09-26T02:14:22.093Z,11.40
2017-09-26T02:16:49.767Z,11.50
2017-09-26T02:19:17.572Z,11.40
2017-09-26T02:21:45.248Z,11.40
2017-09-26T02:24:13.736Z,11.30
2017-09-26T02:26:42.212Z,11.30
2017-09-26T02:29:10.645Z,11.20
2017-09-26T02:31:38.368Z,11.20
2017-09-26T02:34:07.046Z,11.20
2017-09-26T02:36:34.759Z,11.30
2017-09-26T02:39:02.439Z,11.40
2017-09-26T02:41:30.159Z,11.30
2017-09-26T02:43:57.843Z,11.20
2017-09-26T02:46:25.552Z,11.20
2017-09-26T02:48:53.232Z,11.20
2017-09-26T02:51:20.967Z,11.20
2017-09-26T02:53:48.660Z,11.30
2017-09-26T02:58:50.265Z,11.40
2017-09-26T03:01:17.970Z,11.40
2017-09-26T03:03:45.646Z,11.40
2017-09-26T03:06:13.352Z,11.40
2017-09-26T03:08:41.783Z,11.10
2017-09-26T03:11:09.490Z,11.10
2017-09-26T03:13:37.934Z,11.00
2017-09-26T03:16:05.635Z,11.00
2017-09-26T03:18:34.078Z,11.10
2017-09-26T03:21:01.780Z,11.10
2017-09-26T03:23:30.215Z,10.90
2017-09-26T03:25:57.887Z,10.90
2017-09-26T03:28:25.588Z,11.10
2017-09-26T03:30:53.293Z,11.10
2017-09-26T03:33:21.000Z,11.00
2017-09-26T03:35:49.467Z,11.10
2017-09-26T03:38:17.987Z,11.10
2017-09-26T03:40:45.668Z,11.10
2017-09-26T03:43:13.380Z,11.20
2017-09-26T03:45:41.095Z,11.10
2017-09-26T03:48:08.806Z,11.10
2017-09-26T03:50:36.467Z,11.20
2017-09-26T03:53:04.211Z,11.10
2017-09-26T03:55:32.696Z,11.10
2017-09-26T03:58:01.252Z,11.20
2017-09-26T04:00:28.988Z,11.10
2017-09-26T04:02:56.759Z,11.10
2017-09-26T04:05:24.501Z,11.10
2017-09-26T04:07:52.287Z,11.20
2017-09-26T04:10:20.015Z,11.20
2017-09-26T04:12:47.727Z,11.10
2017-09-26T04:15:16.200Z,11.00
2017-09-26T04:17:43.951Z,11.00
2017-09-26T04:20:11.663Z,11.00
2017-09-26T04:22:39.498Z,11.20
2017-09-26T04:25:08.036Z,11.20
2017-09-26T04:27:35.723Z,11.20
2017-09-26T04:30:03.486Z,11.30
2017-09-26T04:32:31.186Z,11.20
2017-09-26T04:34:58.920Z,11.10
2017-09-26T04:37:27.376Z,11.10
2017-09-26T04:39:55.105Z,11.10
2017-09-26T04:42:22.816Z,11.20
2017-09-26T04:44:51.331Z,11.20
2017-09-26T04:47:19.043Z,11.20
2017-09-26T04:49:46.759Z,11.20
2017-09-26T04:52:14.431Z,11.20
2017-09-26T04:54:42.145Z,11.30
2017-09-26T04:57:10.574Z,11.10
2017-09-26T04:59:38.276Z,11.10
2017-09-26T05:02:06.708Z,11.00
2017-09-26T05:04:34.429Z,11.00
2017-09-26T05:07:02.107Z,11.00
2017-09-26T05:09:29.828Z,10.90
2017-09-26T05:11:58.259Z,10.90
2017-09-26T05:14:25.960Z,10.90
2017-09-26T05:16:53.623Z,11.00
2017-09-26T05:19:22.125Z,11.00
2017-09-26T05:21:49.783Z,11.00
2017-09-26T05:24:17.446Z,10.90
2017-09-26T05:26:45.171Z,10.90
2017-09-26T05:29:12.831Z,10.90
2017-09-26T05:31:40.536Z,11.00
2017-09-26T05:34:08.192Z,11.10
2017-09-26T05:36:35.931Z,11.00
2017-09-26T05:39:04.451Z,11.10
2017-09-26T05:41:32.156Z,11.00
2017-09-26T05:44:00.593Z,11.10
2017-09-26T05:46:28.300Z,11.00
2017-09-26T05:48:56.723Z,11.10
2017-09-26T05:51:24.435Z,11.10
2017-09-26T05:53:52.863Z,11.30
2017-09-26T05:56:20.612Z,11.30
2017-09-26T05:58:48.271Z,11.20
2017-09-26T06:01:16.003Z,11.30
2017-09-26T06:03:44.436Z,11.20
2017-09-26T06:06:12.134Z,11.20
2017-09-26T06:08:40.574Z,11.40
2017-09-26T06:11:08.328Z,11.40
2017-09-26T06:13:35.995Z,11.40
2017-09-26T06:16:03.706Z,11.40
2017-09-26T06:18:32.133Z,11.50
2017-09-26T06:20:59.836Z,11.50
2017-09-26T06:23:28.259Z,11.70
2017-09-26T06:25:55.964Z,11.60
2017-09-26T06:28:24.391Z,11.80
2017-09-26T06:30:52.108Z,11.80
2017-09-26T06:33:20.580Z,11.90
2017-09-26T06:35:49.099Z,11.90
2017-09-26T06:38:16.771Z,11.90
2017-09-26T06:40:44.492Z,11.90
2017-09-26T06:43:12.924Z,12.20
2017-09-26T06:45:40.712Z,12.20
2017-09-26T06:48:08.375Z,12.20
2017-09-26T06:50:36.038Z,12.30
2017-09-26T06:53:04.521Z,12.40
2017-09-26T06:55:32.970Z,12.50
2017-09-26T06:58:00.713Z,12.50
2017-09-26T07:00:28.383Z,12.60
2017-09-26T07:02:56.180Z,12.70
2017-09-26T07:05:24.623Z,12.60
2017-09-26T07:07:52.339Z,12.60
2017-09-26T07:10:20.021Z,12.50
2017-09-26T07:12:47.743Z,12.50
2017-09-26T07:15:16.188Z,12.80
2017-09-26T07:17:43.919Z,12.70
2017-09-26T07:20:11.586Z,12.80
2017-09-26T07:22:39.295Z,12.90
2017-09-26T07:25:07.764Z,13.00
2017-09-26T07:27:35.492Z,12.90
2017-09-26T07:30:03.210Z,12.90
2017-09-26T07:32:31.692Z,13.20
2017-09-26T07:34:59.463Z,13.20
2017-09-26T07:37:28.295Z,13.20
2017-09-26T07:39:57.018Z,13.30
2017-09-26T07:42:24.778Z,13.30
2017-09-26T07:44:53.232Z,13.70
2017-09-26T07:47:20.943Z,13.70
2017-09-26T07:49:48.618Z,13.50
2017-09-26T07:52:16.331Z,13.70
2017-09-26T07:54:44.760Z,13.90
2017-09-26T07:57:12.442Z,13.90
2017-09-26T07:59:40.160Z,14.10
2017-09-26T08:02:08.186Z,14.20
2017-09-26T08:04:37.084Z,14.50
2017-09-26T08:07:05.909Z,14.60
2017-09-26T08:09:34.843Z,14.60
2017-09-26T08:12:02.504Z,14.60
2017-09-26T08:14:30.264Z,14.80
2017-09-26T08:16:57.931Z,14.90
2017-09-26T08:19:26.408Z,14.60
2017-09-26T08:21:54.848Z,14.60
2017-09-26T08:24:22.583Z,14.60
2017-09-26T08:26:50.243Z,14.90
2017-09-26T08:29:17.948Z,15.00
2017-09-26T08:31:45.618Z,15.10
2017-09-26T08:34:13.327Z,15.10
2017-09-26T08:36:41.027Z,15.10
2017-09-26T08:39:08.741Z,15.20
2017-09-26T08:41:36.403Z,15.20
2017-09-26T08:44:04.126Z,15.20
2017-09-26T08:46:32.575Z,15.10
2017-09-26T08:49:01.051Z,15.10
2017-09-26T08:51:28.720Z,15.10
2017-09-26T08:53:56.438Z,15.10
2017-09-26T08:56:24.107Z,15.00
2017-09-26T08:58:51.823Z,14.90
2017-09-26T09:01:20.267Z,14.90
2017-09-26T09:03:47.983Z,14.90
2017-09-26T09:06:15.655Z,14.90
2017-09-26T09:08:43.364Z,15.00
2017-09-26T09:11:11.047Z,15.00
2017-09-26T09:13:39.524Z,15.30
2017-09-26T09:16:08.084Z,15.50
2017-09-26T09:18:35.771Z,15.40
2017-09-26T09:21:04.250Z,15.70
2017-09-26T09:23:32.690Z,15.80
2017-09-26T09:26:00.413Z,15.80
2017-09-26T09:28:28.088Z,15.80
2017-09-26T09:30:55.807Z,15.80
2017-09-26T09:33:24.284Z,15.70
2017-09-26T09:35:52.773Z,15.80
2017-09-26T09:38:20.448Z,15.80
2017-09-26T09:40:48.165Z,15.90
2017-09-26T09:43:15.844Z,16.10
2017-09-26T09:45:44.323Z,16.40
2017-09-26T09:48:12.771Z,16.70
2017-09-26T09:50:40.487Z,16.70
2017-09-26T09:53:09.118Z,16.80
2017-09-26T09:55:36.832Z,17.00
2017-09-26T09:58:04.500Z,17.10
2017-09-26T10:00:32.211Z,17.30
2017-09-26T10:03:00.653Z,17.50
2017-09-26T10:05:28.359Z,17.50
2017-09-26T10:07:56.884Z,17.70
2017-09-26T10:10:24.588Z,17.70
2017-09-26T10:12:53.021Z,17.60
2017-09-26T10:15:20.685Z,17.50
2017-09-26T10:17:48.383Z,17.70
2017-09-26T10:20:16.816Z,17.70
2017-09-26T10:22:44.523Z,17.70
2017-09-26T10:25:12.960Z,17.80
2017-09-26T10:27:40.663Z,17.80
2017-09-26T10:30:09.098Z,17.90
2017-09-26T10:32:36.800Z,17.90
2017-09-26T10:35:05.230Z,18.00
2017-09-26T10:37:32.936Z,17.90
2017-09-26T10:40:01.374Z,18.40
2017-09-26T10:42:29.081Z,18.40
2017-09-26T10:44:57.503Z,19.20
2017-09-26T10:47:25.203Z,19.20
2017-09-26T10:49:53.643Z,19.40
2017-09-26T10:52:21.347Z,19.40
2017-09-26T10:54:49.775Z,19.80
2017-09-26T10:57:17.502Z,19.80
2017-09-26T10:59:45.931Z,19.80
2017-09-26T11:02:13.634Z,19.80
2017-09-26T11:04:42.063Z,19.40
2017-09-26T11:07:09.817Z,19.40
2017-09-26T11:09:37.475Z,19.40
2017-09-26T11:12:06.072Z,19.50
2017-09-26T11:14:33.800Z,19.80
2017-09-26T11:17:01.466Z,19.90
2017-09-26T11:19:29.208Z,19.90
2017-09-26T11:21:56.943Z,20.40
2017-09-26T11:24:25.424Z,21.00
2017-09-26T11:26:53.852Z,21.20
2017-09-26T11:29:22.328Z,20.70
2017-09-26T11:31:49.993Z,20.70
2017-09-26T11:34:17.698Z,20.10
2017-09-26T11:36:46.136Z,19.70
2017-09-26T11:39:13.848Z,19.70
2017-09-26T11:41:42.268Z,19.50
2017-09-26T11:44:09.972Z,19.50
2017-09-26T11:46:38.416Z,19.60
2017-09-26T11:49:06.134Z,19.60
2017-09-26T11:51:33.791Z,19.70
2017-09-26T11:54:01.496Z,19.70
2017-09-26T11:56:29.155Z,19.70
2017-09-26T11:58:56.851Z,19.90
2017-09-26T12:01:25.316Z,19.80
2017-09-26T12:03:53.026Z,19.80
2017-09-26T12:06:20.696Z,20.00
2017-09-26T12:08:50.613Z,20.00
2017-09-26T12:11:18.283Z,20.00
2017-09-26T12:14:00.875Z,20.00
2017-09-26T12:16:28.540Z,20.20
2017-09-26T12:18:57.013Z,20.10
2017-09-26T12:21:24.669Z,20.10
2017-09-26T12:23:52.380Z,20.30
2017-09-26T12:26:20.053Z,20.30
2017-09-26T12:28:48.523Z,20.20
2017-09-26T12:31:16.967Z,20.10
2017-09-26T12:33:44.625Z,20.10
2017-09-26T12:36:12.330Z,20.10
2017-09-26T12:38:40.752Z,20.10
2017-09-26T12:41:08.462Z,20.10
2017-09-26T12:43:36.907Z,20.00
2017-09-26T12:46:04.620Z,20.00
2017-09-26T12:48:32.284Z,20.00
2017-09-26T12:50:59.991Z,20.30
2017-09-26T12:53:27.643Z,20.30
2017-09-26T12:55:55.368Z,20.50
2017-09-26T12:58:23.037Z,20.60
2017-09-26T13:00:50.747Z,20.80
2017-09-26T13:03:18.412Z,21.00
2017-09-26T13:05:46.943Z,21.20
2017-09-26T13:08:14.614Z,21.20
2017-09-26T13:10:42.332Z,21.10
2017-09-26T13:13:10.008Z,21.00
2017-09-26T13:15:37.740Z,21.10
2017-09-26T13:18:06.280Z,21.50
2017-09-26T13:20:33.999Z,21.40
2017-09-26T13:23:01.692Z,21.70
2017-09-26T13:25:29.416Z,21.50
2017-09-26T13:27:57.098Z,21.80
2017-09-26T13:30:24.824Z,22.10
2017-09-26T13:32:53.259Z,22.60
2017-09-26T13:35:20.932Z,22.50
2017-09-26T13:37:48.674Z,22.70
2017-09-26T13:40:16.347Z,22.50
2017-09-26T13:42:44.064Z,22.60
2017-09-26T13:45:12.632Z,22.50
2017-09-26T13:47:44.345Z,22.20
2017-09-26T13:50:12.012Z,22.30
2017-09-26T13:52:39.799Z,22.40
2017-09-26T13:55:08.233Z,22.30
2017-09-26T13:57:35.966Z,22.30
2017-09-26T14:00:03.679Z,22.20
2017-09-26T14:02:31.393Z,22.10
2017-09-26T14:04:59.067Z,21.90
2017-09-26T14:07:26.791Z,22.00
2017-09-26T14:09:54.472Z,22.00
2017-09-26T14:12:22.215Z,21.70
2017-09-26T14:14:49.891Z,21.50
2017-09-26T14:17:17.603Z,21.50
2017-09-26T14:19:45.267Z,21.50
2017-09-26T14:22:12.983Z,21.70
2017-09-26T14:24:40.655Z,21.70
2017-09-26T14:27:08.391Z,21.80
2017-09-26T14:29:36.059Z,21.70
2017-09-26T14:32:03.783Z,21.50
2017-09-26T14:34:32.216Z,21.10
2017-09-26T14:36:59.891Z,21.10
2017-09-26T14:39:27.599Z,21.10
2017-09-26T14:41:55.265Z,20.90
2017-09-26T14:44:22.985Z,20.70
2017-09-26T14:46:51.433Z,20.60
2017-09-26T14:49:19.142Z,20.60
2017-09-26T14:51:47.571Z,20.40
2017-09-26T14:54:15.314Z,20.40
2017-09-26T14:56:42.993Z,20.50
2017-09-26T14:59:10.701Z,20.70
2017-09-26T15:01:39.144Z,20.80
2017-09-26T15:04:06.854Z,20.80
2017-09-26T15:06:34.525Z,20.70
2017-09-26T15:09:02.235Z,20.90
2017-09-26T15:11:29.908Z,20.80
2017-09-26T15:13:58.387Z,20.80
2017-09-26T15:16:26.819Z,20.70
2017-09-26T15:18:54.539Z,20.70
2017-09-26T15:21:22.209Z,20.70
2017-09-26T15:23:49.922Z,20.90
2017-09-26T15:26:17.600Z,20.80
2017-09-26T15:28:46.083Z,20.60
2017-09-26T15:31:13.761Z,20.60
2017-09-26T15:33:41.433Z,20.70
2017-09-26T15:36:09.145Z,20.50
2017-09-26T15:38:36.816Z,20.60
2017-09-26T15:41:05.291Z,20.60
2017-09-26T15:43:33.736Z,20.40
2017-09-26T15:46:01.443Z,20.40
2017-09-26T15:48:29.875Z,20.30
2017-09-26T15:50:57.588Z,20.30
2017-09-26T15:53:26.059Z,20.30
2017-09-26T15:55:54.537Z,20.20
2017-09-26T15:58:22.952Z,20.10
2017-09-26T16:00:50.665Z,20.10
2017-09-26T16:03:19.109Z,19.90
2017-09-26T16:05:46.836Z,19.90
2017-09-26T16:08:14.499Z,19.90
2017-09-26T16:10:42.209Z,19.80
2017-09-26T16:13:09.865Z,19.60
2017-09-26T16:15:37.572Z,19.70
2017-09-26T16:18:05.238Z,19.70
2017-09-26T16:20:32.943Z,19.70
2017-09-26T16:23:01.064Z,19.60
2017-09-26T16:25:29.241Z,19.50
2017-09-26T16:27:58.873Z,19.50
2017-09-26T16:30:28.105Z,19.40
2017-09-26T16:32:56.366Z,19.40
2017-09-26T16:35:24.543Z,19.30
2017-09-26T16:37:52.720Z,19.40
2017-09-26T16:40:21.152Z,19.30
2017-09-26T16:42:48.851Z,19.30
2017-09-26T16:45:16.516Z,19.30
2017-09-26T16:47:44.988Z,19.10
2017-09-26T16:50:12.648Z,19.10
2017-09-26T16:52:40.360Z,19.00
2017-09-26T16:55:08.041Z,18.90
2017-09-26T16:57:36.518Z,18.50
2017-09-26T17:00:04.200Z,18.50
2017-09-26T17:02:31.917Z,18.60
2017-09-26T17:04:59.580Z,18.60
2017-09-26T17:07:27.295Z,18.40
2017-09-26T17:09:55.731Z,18.40
2017-09-26T17:12:23.454Z,18.40
2017-09-26T17:14:51.136Z,18.30
2017-09-26T17:17:18.851Z,18.20
2017-09-26T17:19:47.300Z,18.00
2017-09-26T17:22:15.009Z,17.90
2017-09-26T17:24:42.685Z,17.90
2017-09-26T17:27:10.404Z,17.90
2017-09-26T17:29:38.072Z,17.60
2017-09-26T17:32:06.553Z,17.40
2017-09-26T17:34:35.029Z,17.40
2017-09-26T17:37:03.463Z,17.30
2017-09-26T17:39:31.940Z,17.20
2017-09-26T17:41:59.612Z,17.10
2017-09-26T17:44:27.331Z,17.20
2017-09-26T17:46:55.004Z,17.10
2017-09-26T17:49:22.731Z,17.00
2017-09-26T17:51:51.178Z,16.60
2017-09-26T17:54:18.895Z,16.60
2017-09-26T17:56:46.568Z,16.50
2017-09-26T17:59:14.292Z,16.40
2017-09-26T18:01:42.725Z,16.20
2017-09-26T18:04:10.481Z,16.10
2017-09-26T18:06:38.175Z,16.00
2017-09-26T18:09:06.672Z,15.70
2017-09-26T18:11:35.126Z,15.80
2017-09-26T18:14:02.852Z,15.80
2017-09-26T18:16:30.540Z,15.80
2017-09-26T18:18:58.285Z,15.60
2017-09-26T18:21:25.977Z,15.60
2017-09-26T18:23:54.469Z,15.70
2017-09-26T18:26:22.922Z,16.10
2017-09-26T18:28:50.644Z,16.10
2017-09-26T18:31:18.316Z,16.00
2017-09-26T18:33:45.984Z,15.80
2017-09-26T18:36:13.711Z,15.50
2017-09-26T18:38:41.384Z,15.50
2017-09-26T18:41:09.100Z,15.50
2017-09-26T18:43:37.532Z,15.50
2017-09-26T18:46:05.252Z,15.50
2017-09-26T18:48:32.936Z,15.30
2017-09-26T18:51:00.673Z,15.20
2017-09-26T18:53:28.364Z,15.40
2017-09-26T18:55:56.088Z,15.60
2017-09-26T18:58:24.551Z,15.60
2017-09-26T19:00:53.048Z,15.50
2017-09-26T19:03:21.513Z,15.30
2017-09-26T19:05:50.001Z,15.10
2017-09-26T19:08:18.458Z,15.10
2017-09-26T19:10:46.175Z,15.00
2017-09-26T19:13:13.854Z,15.10
2017-09-26T19:15:41.559Z,15.20
2017-09-26T19:18:10.018Z,15.40
2017-09-26T19:20:38.504Z,15.40
2017-09-26T19:23:06.948Z,15.40
2017-09-26T19:25:34.792Z,15.40
2017-09-26T19:28:02.489Z,15.40
2017-09-26T19:30:30.231Z,15.40
2017-09-26T19:32:57.923Z,15.30
2017-09-26T19:35:26.404Z,15.10
2017-09-26T19:37:54.859Z,15.10
2017-09-26T19:40:22.544Z,15.10
2017-09-26T19:42:51.028Z,14.90
2017-09-26T19:45:19.472Z,14.80
2017-09-26T19:47:47.207Z,14.80
2017-09-26T19:50:14.883Z,14.90
2017-09-26T19:52:42.611Z,14.70
2017-09-26T19:55:10.292Z,14.90
2017-09-26T19:57:38.077Z,15.00
2017-09-26T20:00:05.786Z,14.80
2017-09-26T20:02:33.527Z,14.70
2017-09-26T20:05:01.967Z,14.50
2017-09-26T20:07:29.689Z,14.50
2017-09-26T20:09:57.370Z,14.60
2017-09-26T20:12:25.084Z,14.50
2017-09-26T20:14:53.532Z,14.50
2017-09-26T20:17:21.347Z,14.50
2017-09-26T20:19:49.036Z,14.30
2017-09-26T20:22:16.821Z,14.20
2017-09-26T20:24:44.504Z,14.10
2017-09-26T20:27:12.988Z,13.90
2017-09-26T20:29:41.429Z,13.70
2017-09-26T20:32:09.147Z,13.70
2017-09-26T20:34:36.820Z,13.50
2017-09-26T20:37:04.537Z,13.60
2017-09-26T20:39:32.971Z,13.50
2017-09-26T20:42:00.693Z,13.50
2017-09-26T20:44:28.383Z,13.40
2017-09-26T20:46:56.063Z,13.40
2017-09-26T20:49:23.784Z,13.40
2017-09-26T20:51:51.455Z,13.40
2017-09-26T20:54:19.179Z,13.50
2017-09-26T20:56:47.676Z,13.60
2017-09-26T20:59:15.406Z,13.60
2017-09-26T21:01:43.135Z,13.50
2017-09-26T21:04:11.683Z,13.90
2017-09-26T21:06:39.363Z,13.90
2017-09-26T21:09:07.147Z,13.70
2017-09-26T21:11:34.823Z,13.50
2017-09-26T21:14:02.551Z,13.50
2017-09-26T21:16:30.221Z,13.40
2017-09-26T21:18:57.932Z,13.40
2017-09-26T21:21:26.367Z,13.30
2017-09-26T21:23:54.083Z,13.30
2017-09-26T21:26:21.800Z,13.30
2017-09-26T21:28:49.530Z,13.30
2017-09-26T21:31:17.198Z,13.30
2017-09-26T21:33:44.914Z,13.30
2017-09-26T21:36:13.356Z,13.20
2017-09-26T21:38:41.080Z,13.20
2017-09-26T21:41:08.757Z,13.30
2017-09-26T21:43:36.472Z,13.20
2017-09-26T21:46:04.916Z,13.30
2017-09-26T21:48:32.641Z,13.30
2017-09-26T21:51:00.323Z,13.30
2017-09-26T21:53:28.063Z,13.30
2017-09-26T21:55:55.740Z,13.20
2017-09-26T21:58:23.452Z,13.20
2017-09-26T22:00:51.936Z,13.10
2017-09-26T22:03:19.617Z,13.10
2017-09-26T22:05:47.341Z,13.10
2017-09-26T22:08:15.777Z,13.00
2017-09-26T22:10:43.491Z,13.00
2017-09-26T22:13:11.172Z,13.00
2017-09-26T22:15:38.896Z,13.00
2017-09-26T22:18:07.345Z,13.00
2017-09-26T22:20:35.055Z,13.00
2017-09-26T22:23:02.735Z,13.00
2017-09-26T22:25:30.453Z,12.90
2017-09-26T22:27:58.895Z,12.80
2017-09-26T22:30:26.618Z,12.80
2017-09-26T22:32:54.284Z,12.70
2017-09-26T22:35:21.996Z,12.80
2017-09-26T22:37:49.668Z,13.00
2017-09-26T22:40:18.150Z,13.00
2017-09-26T22:42:46.589Z,13.00
2017-09-26T22:45:14.299Z,13.00
2017-09-26T22:47:42.735Z,12.90
2017-09-26T22:50:10.456Z,12.90
2017-09-26T22:52:38.130Z,13.00
2017-09-26T22:55:05.811Z,13.00
2017-09-26T22:57:33.514Z,13.00
2017-09-26T23:00:01.184Z,13.10
2017-09-26T23:02:28.892Z,13.00
2017-09-26T23:04:56.555Z,13.10
2017-09-26T23:07:24.260Z,13.10
2017-09-26T23:09:51.921Z,13.10
2017-09-26T23:12:19.628Z,13.10
2017-09-26T23:14:47.307Z,13.10
2017-09-26T23:17:15.016Z,13.10
2017-09-26T23:19:43.480Z,13.10
2017-09-26T23:22:11.185Z,13.10
2017-09-26T23:24:38.852Z,13.00
2017-09-26T23:27:06.554Z,13.20
2017-09-26T23:29:34.977Z,13.30
2017-09-26T23:32:02.680Z,13.30
2017-09-26T23:34:31.109Z,13.30
2017-09-26T23:36:58.815Z,13.30
2017-09-26T23:39:27.244Z,13.10
2017-09-26T23:41:54.944Z,13.10
2017-09-26T23:44:22.603Z,13.20
2017-09-26T23:46:50.312Z,13.10
2017-09-26T23:49:17.991Z,13.00
2017-09-26T23:51:45.699Z,13.20
2017-09-26T23:54:14.135Z,13.10
2017-09-26T23:56:41.815Z,13.00
2017-09-26T23:59:09.531Z,13.20
